Sunday, October 22, 2017, 8:39 PM EDT
Back to Local

KSNC, Chester, Chester Airport

Location: Chester, CT, United States Lat: 41.384
Local Time: 8:39 PM EDT ( 0:39 GMT) Lon: -72.506
Time Zone: US/Eastern Elev: 416 ft

Show me the last for .
Show Coded

Time T Td Feel RH Dir Speed Gust Alt SLP Vis Weather Sky Remarks
2017-10-22 20:15 61 55 - 82 190° 6 - 30.39 - 10 CLR None
2017-10-22 19:55 59 55 - 87 180° 6 - 30.39 - 10 CLR None
2017-10-22 19:35 59 55 - 87 - Calm - 30.39 - 10 CLR None
2017-10-22 19:15 61 54 - 77 - Calm - 30.39 - 10 CLR None
2017-10-22 18:55 63 54 - 72 Variable 3 - 30.38 - 10 CLR None
2017-10-22 18:35 63 54 - 72 180° 5 - 30.38 - 10 CLR None
2017-10-22 17:55 66 54 - 63 140° 3 - 30.38 - 10 CLR None
2017-10-22 17:35 68 52 - 56 - Calm - 30.38 - 10 CLR None
2017-10-22 17:15 72 50 76 46 180° 5 - 30.38 - 10 CLR None
2017-10-22 16:55 73 50 76 43 Variable 3 - 30.38 - 10 CLR None
2017-10-22 16:35 73 48 76 40 Variable 6 - 30.38 - 10 CLR None
2017-10-22 16:15 73 48 76 40 200° 6 - 30.38 - 10 CLR None
2017-10-22 15:55 75 46 - 36 180° 8 - 30.38 - 10 CLR None
2017-10-22 15:15 77 45 - 31 Variable 6 13 30.38 - 10 CLR None
2017-10-22 14:55 75 37 - 25 200° 7 - 30.38 - 10 CLR None
2017-10-22 14:35 77 41 - 27 200° 8 - 30.38 - 10 CLR None
2017-10-22 14:15 77 41 - 27 190° 9 - 30.38 - 10 CLR None
2017-10-22 13:55 79 41 - 26 200° 8 - 30.38 - 10 CLR None
2017-10-22 13:35 77 41 - 27 190° 7 - 30.39 - 10 CLR None
2017-10-22 13:15 77 41 - 27 Variable 6 - 30.39 - 10 CLR None
2017-10-22 12:55 77 43 - 29 180° 9 - 30.40 - 10 CLR None
2017-10-22 12:35 77 41 - 27 Variable 3 - 30.40 - 10 CLR None
2017-10-22 12:15 75 37 - 25 240° 6 - 30.40 - 10 CLR None
2017-10-22 11:55 75 43 - 31 220° 5 - 30.41 - 10 CLR None
2017-10-22 11:15 72 50 76 46 - Calm - 30.41 - 10 CLR None
2017-10-22 10:55 72 50 76 46 - Calm - 30.42 - 10 CLR None
2017-10-22 10:35 73 48 76 40 - Calm - 30.42 - 10 CLR None
2017-10-22 10:15 72 48 76 43 - Calm - 30.42 - 10 CLR None
2017-10-22 09:55 70 48 - 46 - Calm - 30.42 - 10 CLR None
2017-10-22 09:35 68 50 - 52 - - - 30.43 - 10 CLR None
2017-10-22 09:15 64 50 - 59 - Calm - 30.42 - 10 CLR None
2017-10-22 08:55 61 48 - 63 - Calm - 30.42 - 10 CLR None
2017-10-22 08:35 55 48 - 76 - Calm - 30.42 - 10 CLR None
2017-10-22 08:15 54 46 - 76 - Calm - 30.41 - 10 CLR None
2017-10-22 07:55 52 46 - 81 - Calm - 30.40 - 10 CLR None
2017-10-22 07:35 52 45 - 76 - Calm - 30.39 - 10 CLR None
2017-10-22 06:35 54 45 - 71 - Calm - 30.38 - 10 CLR None
2017-10-22 06:15 52 46 - 81 - Calm - 30.38 - 10 CLR None
2017-10-22 05:55 54 45 - 71 - Calm - 30.37 - 10 CLR None
2017-10-22 05:35 57 43 - 58 - Calm - 30.37 - 10 CLR None
2017-10-22 05:15 55 43 - 62 - Calm - 30.36 - 10 CLR None
2017-10-22 04:55 55 43 - 62 - Calm - 30.36 - 10 CLR None
2017-10-22 04:35 54 45 - 71 - Calm - 30.36 - 10 CLR None
2017-10-22 04:15 54 46 - 76 - Calm - 30.35 - 10 CLR None
2017-10-22 03:55 52 46 - 81 310° 3 - 30.35 - 10 CLR None
2017-10-22 03:35 54 46 - 76 - Calm - 30.35 - 10 CLR None
2017-10-22 03:15 55 46 - 71 - Calm - 30.35 - 10 CLR None
2017-10-22 02:55 57 45 - 62 Variable 3 - 30.35 - 10 CLR None
2017-10-22 02:35 57 46 - 67 260° 5 - 30.35 - 10 CLR None
2017-10-22 02:15 59 46 - 62 - Calm - 30.35 - 10 CLR None
2017-10-22 01:55 59 48 - 67 250° 6 - 30.35 - 10 CLR None
2017-10-22 01:35 59 48 - 67 250° 6 - 30.36 - 10 CLR None
2017-10-22 01:15 59 48 - 67 260° 6 - 30.36 - 10 CLR None
2017-10-22 00:55 59 48 - 67 260° 5 - 30.36 - 10 CLR None
2017-10-22 00:35 59 48 - 67 250° 5 - 30.35 - 10 CLR None
2017-10-22 00:15 59 48 - 67 Variable 5 - 30.35 - 10 CLR None
2017-10-21 23:55 61 48 - 63 250° 7 - 30.35 - 10 CLR None
2017-10-21 23:35 61 48 - 63 250° 7 - 30.35 - 10 CLR None
2017-10-21 23:15 61 50 - 67 Variable 7 - 30.35 - 10 CLR None
2017-10-21 22:55 61 50 - 67 250° 6 - 30.35 - 10 CLR None
2017-10-21 22:35 61 50 - 67 240° 6 - 30.35 - 10 CLR None
2017-10-21 22:15 61 50 - 67 240° 6 - 30.35 - 10 CLR None
2017-10-21 21:55 61 50 - 67 240° 6 - 30.35 - 10 CLR None
2017-10-21 21:35 61 50 - 67 240° 7 - 30.35 - 10 CLR None
2017-10-21 21:15 61 48 - 63 240° 6 - 30.35 - 10 CLR None
2017-10-21 20:55 61 50 - 67 240° 7 - 30.35 - 10 CLR None

Support USWX by starting your Amazon purchase here.